createdAt,value
2022-10-20T00:02:05.587Z,21.73
2022-10-20T00:04:32.457Z,20.45
2022-10-20T00:06:59.339Z,20.23
2022-10-20T00:09:26.171Z,21.65
2022-10-20T00:11:53.014Z,21.90
2022-10-20T00:14:19.833Z,20.55
2022-10-20T00:16:46.722Z,21.08
2022-10-20T00:19:13.540Z,21.50
2022-10-20T00:21:40.422Z,22.38
2022-10-20T00:24:07.222Z,22.45
2022-10-20T00:26:34.086Z,22.63
2022-10-20T00:29:02.877Z,23.88
2022-10-20T00:31:30.358Z,25.58
2022-10-20T00:33:57.655Z,25.02
2022-10-20T00:36:24.596Z,24.50
2022-10-20T00:38:56.025Z,24.92
2022-10-20T00:41:22.924Z,25.15
2022-10-20T00:44:01.493Z,25.95
2022-10-20T00:46:41.234Z,24.65
2022-10-20T00:49:26.201Z,26.83
2022-10-20T00:51:54.816Z,28.83
2022-10-20T00:54:25.762Z,25.48
2022-10-20T00:56:55.713Z,32.83
2022-10-20T00:59:26.365Z,31.13
2022-10-20T01:01:54.698Z,23.85
2022-10-20T01:04:22.097Z,24.58
2022-10-20T01:06:49.017Z,26.00
2022-10-20T01:09:15.829Z,24.58
2022-10-20T01:11:58.769Z,25.13
2022-10-20T01:15:07.820Z,26.00
2022-10-20T01:17:46.840Z,24.58
2022-10-20T01:20:41.081Z,24.80
2022-10-20T01:23:45.729Z,25.25
2022-10-20T01:26:36.899Z,27.02
2022-10-20T01:29:16.385Z,25.75
2022-10-20T01:32:11.720Z,25.35
2022-10-20T01:34:52.187Z,26.05
2022-10-20T01:37:48.332Z,27.08
2022-10-20T01:40:27.658Z,25.52
2022-10-20T01:42:58.232Z,26.38
2022-10-20T01:45:28.186Z,27.33
2022-10-20T01:47:56.174Z,28.20
2022-10-20T01:50:24.911Z,27.27
2022-10-20T01:52:58.551Z,27.98
2022-10-20T01:55:25.880Z,26.88
2022-10-20T01:58:11.570Z,26.58
2022-10-20T02:00:39.740Z,26.70
2022-10-20T02:03:12.563Z,26.13
2022-10-20T02:05:48.478Z,26.15
2022-10-20T02:08:33.393Z,27.45
2022-10-20T02:11:03.784Z,24.90
2022-10-20T02:13:31.276Z,27.13
2022-10-20T02:16:02.931Z,27.40
2022-10-20T02:18:38.772Z,27.17
2022-10-20T02:21:06.875Z,26.70
2022-10-20T02:23:37.476Z,26.90
2022-10-20T02:26:07.367Z,26.70
2022-10-20T02:28:37.627Z,26.92
2022-10-20T02:31:05.234Z,26.02
2022-10-20T02:33:34.013Z,27.33
2022-10-20T02:36:04.025Z,26.75
2022-10-20T02:38:31.207Z,26.88
2022-10-20T02:40:58.017Z,26.95
2022-10-20T02:43:24.874Z,26.40
2022-10-20T02:45:51.638Z,28.38
2022-10-20T02:48:18.614Z,27.58
2022-10-20T02:50:45.377Z,27.80
2022-10-20T02:53:12.228Z,27.98
2022-10-20T02:55:39.033Z,28.95
2022-10-20T02:58:05.834Z,27.33
2022-10-20T03:00:32.599Z,28.33
2022-10-20T03:03:00.155Z,28.63
2022-10-20T03:05:29.845Z,27.95
2022-10-20T03:07:56.702Z,29.35
2022-10-20T03:10:23.724Z,28.30
2022-10-20T03:12:50.553Z,27.38
2022-10-20T03:15:17.529Z,27.33
2022-10-20T03:17:44.508Z,28.50
2022-10-20T03:20:11.503Z,29.00
2022-10-20T03:22:38.352Z,29.45
2022-10-20T03:25:05.532Z,29.25
2022-10-20T03:27:32.395Z,29.85
2022-10-20T03:29:59.169Z,29.73
2022-10-20T03:32:26.085Z,30.23
2022-10-20T03:34:52.881Z,30.42
2022-10-20T03:37:19.814Z,33.00
2022-10-20T03:39:46.700Z,28.60
2022-10-20T03:42:32.284Z,30.52
2022-10-20T03:44:59.236Z,29.00
2022-10-20T03:47:25.966Z,29.73
2022-10-20T03:49:52.846Z,29.10
2022-10-20T03:52:19.774Z,29.27
2022-10-20T03:54:46.614Z,30.83
2022-10-20T03:57:13.447Z,29.77
2022-10-20T03:59:40.306Z,29.77
2022-10-20T04:02:07.150Z,30.17
2022-10-20T04:04:34.075Z,29.48
2022-10-20T04:07:00.916Z,30.98
2022-10-20T04:09:27.716Z,30.58
2022-10-20T04:11:54.498Z,30.00
2022-10-20T04:14:21.430Z,30.60
2022-10-20T04:16:48.169Z,30.27
2022-10-20T04:19:15.133Z,30.98
2022-10-20T04:21:41.965Z,31.25
2022-10-20T04:24:08.833Z,30.75
2022-10-20T04:26:35.792Z,31.30
2022-10-20T04:29:02.945Z,30.38
2022-10-20T04:31:29.708Z,31.23
2022-10-20T04:33:56.588Z,32.13
2022-10-20T04:36:23.396Z,31.42
2022-10-20T04:38:50.193Z,33.08
2022-10-20T04:41:16.996Z,31.83
2022-10-20T04:43:43.929Z,31.55
2022-10-20T04:46:11.070Z,32.47
2022-10-20T04:48:42.062Z,31.30
2022-10-20T04:51:12.495Z,33.20
2022-10-20T04:53:39.733Z,32.13
2022-10-20T04:56:08.541Z,33.15
2022-10-20T04:58:56.193Z,33.33
2022-10-20T05:01:25.604Z,31.13
2022-10-20T05:03:52.472Z,32.50
2022-10-20T05:06:22.499Z,32.13
2022-10-20T05:08:51.879Z,31.65
2022-10-20T05:11:21.095Z,31.67
2022-10-20T05:13:48.582Z,32.80
2022-10-20T05:16:17.520Z,32.95
2022-10-20T05:18:44.907Z,33.40
2022-10-20T05:21:17.102Z,33.50
2022-10-20T05:23:45.121Z,32.80
2022-10-20T05:26:14.934Z,34.20
2022-10-20T05:28:47.642Z,32.83
2022-10-20T05:31:16.491Z,32.42
2022-10-20T05:33:55.000Z,32.65
2022-10-20T05:36:25.117Z,32.53
2022-10-20T05:38:54.434Z,32.78
2022-10-20T05:41:24.142Z,30.77
2022-10-20T05:43:52.889Z,32.00
2022-10-20T05:46:20.839Z,34.03
2022-10-20T05:48:47.786Z,33.05
2022-10-20T05:51:21.377Z,30.95
2022-10-20T05:53:48.293Z,31.52
2022-10-20T05:56:20.633Z,31.08
2022-10-20T05:58:48.217Z,31.70
2022-10-20T06:01:24.415Z,33.95
2022-10-20T06:03:55.023Z,33.05
2022-10-20T06:06:24.520Z,32.78
2022-10-20T06:08:51.909Z,30.63
2022-10-20T06:11:20.460Z,30.95
2022-10-20T06:13:50.065Z,31.10
2022-10-20T06:16:25.429Z,30.85
2022-10-20T06:18:53.283Z,31.02
2022-10-20T06:21:23.208Z,34.25
2022-10-20T06:23:50.825Z,32.00
2022-10-20T06:26:20.613Z,34.95
2022-10-20T06:28:51.303Z,30.98
2022-10-20T06:31:39.298Z,35.60
2022-10-20T06:34:08.424Z,35.00
2022-10-20T06:36:39.634Z,32.92
2022-10-20T06:39:08.548Z,30.27
2022-10-20T06:41:35.483Z,33.00
2022-10-20T06:44:02.705Z,30.27
2022-10-20T06:46:31.923Z,32.80
2022-10-20T06:49:03.770Z,30.30
2022-10-20T06:51:31.795Z,30.20
2022-10-20T06:53:59.948Z,28.63
2022-10-20T06:56:29.075Z,32.22
2022-10-20T06:58:57.304Z,32.25
2022-10-20T07:01:32.905Z,35.33
2022-10-20T07:04:24.738Z,31.80
2022-10-20T07:06:51.638Z,32.00
2022-10-20T07:09:19.447Z,30.55
2022-10-20T07:11:50.160Z,29.33
2022-10-20T07:14:17.379Z,27.65
2022-10-20T07:16:44.367Z,27.15
2022-10-20T07:19:11.541Z,28.83
2022-10-20T07:21:41.589Z,27.73
2022-10-20T07:24:10.001Z,28.77
2022-10-20T07:26:39.258Z,26.38
2022-10-20T07:29:06.375Z,26.58
2022-10-20T07:31:39.734Z,28.23
2022-10-20T07:34:26.102Z,29.40
2022-10-20T07:36:53.785Z,30.58
2022-10-20T07:39:20.790Z,27.45
2022-10-20T07:41:48.360Z,27.77
2022-10-20T07:44:16.477Z,26.80
2022-10-20T07:46:43.671Z,25.90
2022-10-20T07:49:39.155Z,26.08
2022-10-20T07:51:57.529Z,25.17
2022-10-20T07:54:24.368Z,24.15
2022-10-20T07:56:51.226Z,26.17
2022-10-20T07:59:18.826Z,25.35
2022-10-20T08:01:46.303Z,25.85
2022-10-20T08:04:13.174Z,24.05
2022-10-20T08:06:40.077Z,26.13
2022-10-20T08:09:07.382Z,25.08
2022-10-20T08:11:34.979Z,24.23
2022-10-20T08:14:01.971Z,23.55
2022-10-20T08:21:59.298Z,24.20
2022-10-20T08:24:26.176Z,26.00
2022-10-20T08:26:53.021Z,24.80
2022-10-20T08:29:19.867Z,23.15
2022-10-20T08:31:46.747Z,23.30
2022-10-20T08:34:13.506Z,22.55
2022-10-20T08:36:40.348Z,23.55
2022-10-20T08:39:07.216Z,22.70
2022-10-20T08:42:02.765Z,22.80
2022-10-20T08:44:34.586Z,22.52
2022-10-20T08:47:14.500Z,20.95
2022-10-20T08:49:41.431Z,20.27
2022-10-20T08:52:15.247Z,20.88
2022-10-20T08:54:42.420Z,21.65
2022-10-20T08:57:27.583Z,21.23
2022-10-20T08:59:56.518Z,20.15
2022-10-20T09:02:23.566Z,21.35
2022-10-20T09:04:58.547Z,20.38
2022-10-20T09:07:31.659Z,20.33
2022-10-20T09:10:18.629Z,21.35
2022-10-20T09:12:47.100Z,20.20
2022-10-20T09:15:16.718Z,21.58
2022-10-20T09:17:49.247Z,20.33
2022-10-20T09:20:38.243Z,21.08
2022-10-20T09:23:16.658Z,21.08
2022-10-20T09:25:53.337Z,22.05
2022-10-20T09:28:26.405Z,21.50
2022-10-20T09:30:54.624Z,23.15
2022-10-20T09:33:29.016Z,22.55
2022-10-20T09:36:05.041Z,22.58
2022-10-20T09:38:35.023Z,23.58
2022-10-20T09:41:13.545Z,23.50
2022-10-20T09:43:58.065Z,22.55
2022-10-20T09:46:32.054Z,22.70
2022-10-20T09:48:59.265Z,22.13
2022-10-20T09:51:30.896Z,21.90
2022-10-20T09:54:01.915Z,22.40
2022-10-20T09:56:38.788Z,21.88
2022-10-20T09:59:21.062Z,21.35
2022-10-20T10:02:02.755Z,21.00
2022-10-20T10:04:41.121Z,22.10
2022-10-20T10:07:26.311Z,22.30
2022-10-20T10:10:21.757Z,22.92
2022-10-20T10:12:56.890Z,22.13
2022-10-20T10:15:26.666Z,20.27
2022-10-20T10:17:54.478Z,19.58
2022-10-20T10:20:24.135Z,20.20
2022-10-20T10:22:51.197Z,19.80
2022-10-20T10:25:29.524Z,19.05
2022-10-20T10:28:09.317Z,18.85
2022-10-20T10:30:38.297Z,18.52
2022-10-20T10:33:37.357Z,18.58
2022-10-20T10:36:13.866Z,19.30
2022-10-20T10:38:40.879Z,17.58
2022-10-20T10:41:28.486Z,18.33
2022-10-20T10:44:18.665Z,17.85
2022-10-20T10:47:07.375Z,16.52
2022-10-20T10:50:03.718Z,15.80
2022-10-20T10:55:21.228Z,15.02
2022-10-20T10:58:05.055Z,14.75
2022-10-20T11:00:59.765Z,14.32
2022-10-20T11:03:59.992Z,13.60
2022-10-20T11:06:44.839Z,14.48
2022-10-20T11:09:42.078Z,14.40
2022-10-20T11:12:17.812Z,15.02
2022-10-20T11:15:20.557Z,13.35
2022-10-20T11:18:19.797Z,13.10
2022-10-20T11:21:17.163Z,13.40
2022-10-20T11:24:06.014Z,12.98
2022-10-20T11:26:37.124Z,11.93
2022-10-20T11:29:09.776Z,11.27
2022-10-20T11:31:40.356Z,10.80
2022-10-20T11:34:21.370Z,10.52
2022-10-20T11:37:05.381Z,10.57
2022-10-20T11:39:54.184Z,9.98
2022-10-20T11:42:36.467Z,10.23
2022-10-20T11:45:22.705Z,9.23
2022-10-20T11:47:55.645Z,9.48
2022-10-20T11:50:23.456Z,9.07
2022-10-20T11:53:06.693Z,9.45
2022-10-20T11:55:43.817Z,9.27
2022-10-20T11:58:34.058Z,9.35
2022-10-20T12:01:22.553Z,9.98
2022-10-20T12:04:24.168Z,9.02
2022-10-20T12:07:26.723Z,9.40
2022-10-20T12:10:20.081Z,10.68
2022-10-20T12:13:24.751Z,9.75
2022-10-20T12:15:52.925Z,10.32
2022-10-20T12:18:26.546Z,10.60
2022-10-20T12:21:02.108Z,9.93
2022-10-20T12:23:44.183Z,11.00
2022-10-20T12:26:29.934Z,9.70
2022-10-20T12:28:57.619Z,10.38
2022-10-20T12:31:25.731Z,9.82
2022-10-20T12:33:53.356Z,9.82
2022-10-20T12:36:37.230Z,8.98
2022-10-20T12:39:12.948Z,8.80
2022-10-20T12:41:57.511Z,8.73
2022-10-20T12:44:25.593Z,8.10
2022-10-20T12:47:19.646Z,7.60
2022-10-20T12:49:57.463Z,7.05
2022-10-20T12:52:29.169Z,7.80
2022-10-20T12:55:04.824Z,7.95
2022-10-20T12:57:45.064Z,7.78
2022-10-20T13:00:23.640Z,7.57
2022-10-20T13:03:00.497Z,8.05
2022-10-20T13:05:46.621Z,7.18
2022-10-20T13:08:21.116Z,7.82
2022-10-20T13:10:49.321Z,7.53
2022-10-20T13:13:19.175Z,6.30
2022-10-20T13:15:47.580Z,6.30
2022-10-20T13:18:17.330Z,6.68
2022-10-20T13:20:56.194Z,6.80
2022-10-20T13:23:44.862Z,7.22
2022-10-20T13:26:30.951Z,9.07
2022-10-20T13:29:00.795Z,8.93
2022-10-20T13:31:33.591Z,11.88
2022-10-20T13:34:09.372Z,10.50
2022-10-20T13:36:42.515Z,6.43
2022-10-20T13:39:47.578Z,5.55
2022-10-20T13:42:29.464Z,5.80
2022-10-20T13:45:05.279Z,5.80
2022-10-20T13:47:46.641Z,7.30
2022-10-20T13:50:20.127Z,9.63
2022-10-20T13:52:52.841Z,6.63
2022-10-20T13:55:23.197Z,5.45
2022-10-20T13:58:21.461Z,5.85
2022-10-20T14:01:03.947Z,5.93
2022-10-20T14:03:40.113Z,9.32
2022-10-20T14:06:07.083Z,7.45
2022-10-20T14:08:43.484Z,7.35
2022-10-20T14:11:11.332Z,8.10
2022-10-20T14:13:38.159Z,10.80
2022-10-20T14:16:07.181Z,19.65
2022-10-20T14:18:38.240Z,13.70
2022-10-20T14:21:17.268Z,11.65
2022-10-20T14:23:46.265Z,4.82
2022-10-20T14:26:19.763Z,5.15
2022-10-20T14:28:49.405Z,4.43
2022-10-20T14:31:16.614Z,4.95
2022-10-20T14:33:49.200Z,4.82
2022-10-20T14:36:28.458Z,4.65
2022-10-20T14:39:01.036Z,5.13
2022-10-20T14:41:31.495Z,4.60
2022-10-20T14:44:05.910Z,4.20
2022-10-20T14:46:37.866Z,3.78
2022-10-20T14:49:27.014Z,3.80
2022-10-20T14:51:59.924Z,4.13
2022-10-20T14:54:37.974Z,3.85
2022-10-20T14:57:07.977Z,3.97
2022-10-20T15:00:06.122Z,4.28
2022-10-20T15:02:40.037Z,3.85
2022-10-20T15:05:33.627Z,4.10
2022-10-20T15:08:09.899Z,4.60
2022-10-20T15:10:37.932Z,4.03
2022-10-20T15:13:04.862Z,4.15
2022-10-20T15:15:39.168Z,4.43
2022-10-20T15:18:20.956Z,3.90
2022-10-20T15:20:49.066Z,4.20
2022-10-20T15:23:21.637Z,3.58
2022-10-20T15:26:05.673Z,3.47
2022-10-20T15:28:50.722Z,3.50
2022-10-20T15:31:23.477Z,3.00
2022-10-20T15:33:51.643Z,2.97
2022-10-20T15:36:28.403Z,2.65
2022-10-20T15:38:56.437Z,2.70
2022-10-20T15:41:25.941Z,2.85
2022-10-20T15:43:52.994Z,2.70
2022-10-20T15:46:20.724Z,2.28
2022-10-20T15:48:48.246Z,2.40
2022-10-20T15:51:25.594Z,2.45
2022-10-20T15:53:53.966Z,2.22
2022-10-20T15:56:21.580Z,2.60
2022-10-20T15:58:51.897Z,14.85
2022-10-20T16:01:20.835Z,4.18
2022-10-20T16:03:48.482Z,2.08
2022-10-20T16:06:17.943Z,2.25
2022-10-20T16:08:47.357Z,5.18
2022-10-20T16:11:15.838Z,6.70
2022-10-20T16:13:43.122Z,1.77
2022-10-20T16:16:13.946Z,1.90
2022-10-20T16:18:40.888Z,1.60
2022-10-20T16:21:08.807Z,1.88
2022-10-20T16:23:40.564Z,1.70
2022-10-20T16:26:11.363Z,1.70
2022-10-20T16:28:38.674Z,1.88
2022-10-20T16:31:10.973Z,1.95
2022-10-20T16:33:38.297Z,1.80
2022-10-20T16:38:39.181Z,2.13
2022-10-20T16:41:10.744Z,1.95
2022-10-20T16:43:39.742Z,2.05
2022-10-20T16:46:08.036Z,1.85
2022-10-20T16:48:37.637Z,2.22
2022-10-20T16:51:10.161Z,2.92
2022-10-20T16:53:37.439Z,2.00
2022-10-20T16:56:04.566Z,2.72
2022-10-20T16:58:31.420Z,2.25
2022-10-20T17:01:00.916Z,2.60
2022-10-20T17:03:28.006Z,2.50
2022-10-20T17:06:03.098Z,2.58
2022-10-20T17:08:31.968Z,2.75
2022-10-20T17:11:01.482Z,2.67
2022-10-20T17:13:30.310Z,2.72
2022-10-20T17:16:02.787Z,3.17
2022-10-20T17:18:29.703Z,2.75
2022-10-20T17:20:56.876Z,3.05
2022-10-20T17:23:25.070Z,3.53
2022-10-20T17:25:53.282Z,3.38
2022-10-20T17:28:20.169Z,3.10
2022-10-20T17:30:48.513Z,3.50
2022-10-20T17:33:15.749Z,3.80
2022-10-20T17:35:48.707Z,4.25
2022-10-20T17:38:15.787Z,4.18
2022-10-20T17:40:42.559Z,4.25
2022-10-20T17:43:09.429Z,4.53
2022-10-20T17:45:38.146Z,5.32
2022-10-20T17:48:05.914Z,4.53
2022-10-20T17:50:33.114Z,4.25
2022-10-20T17:53:01.503Z,4.10
2022-10-20T17:55:29.036Z,3.53
2022-10-20T17:57:56.153Z,3.63
2022-10-20T18:00:37.732Z,4.05
2022-10-20T18:03:09.945Z,4.03
2022-10-20T18:05:37.155Z,3.30
2022-10-20T18:08:04.118Z,3.30
2022-10-20T18:10:30.909Z,4.13
2022-10-20T18:12:57.791Z,3.42
2022-10-20T18:15:24.542Z,3.67
2022-10-20T18:17:51.383Z,3.10
2022-10-20T18:20:18.235Z,5.28
2022-10-20T18:22:45.535Z,4.30
2022-10-20T18:25:12.297Z,4.65
2022-10-20T18:27:39.149Z,6.38
2022-10-20T18:30:08.035Z,6.57
2022-10-20T18:32:36.414Z,5.72
2022-10-20T18:35:03.562Z,5.38
2022-10-20T18:37:30.433Z,5.57
2022-10-20T18:39:57.208Z,5.35
2022-10-20T18:42:24.131Z,4.95
2022-10-20T18:44:50.912Z,5.90
2022-10-20T18:47:17.777Z,5.07
2022-10-20T18:49:44.575Z,6.65
2022-10-20T18:52:11.387Z,5.70
2022-10-20T18:54:39.416Z,5.88
2022-10-20T18:57:06.317Z,5.25
2022-10-20T18:59:33.061Z,5.70
2022-10-20T19:01:59.905Z,5.10
2022-10-20T19:04:26.754Z,6.20
2022-10-20T19:06:53.664Z,5.78
2022-10-20T19:09:21.613Z,5.80
2022-10-20T19:14:17.520Z,6.05
2022-10-20T19:16:46.101Z,6.82
2022-10-20T19:19:13.807Z,6.57
2022-10-20T19:21:41.056Z,6.60
2022-10-20T19:24:11.505Z,6.82
2022-10-20T19:26:40.983Z,6.15
2022-10-20T19:29:13.989Z,7.40
2022-10-20T19:31:42.576Z,7.22
2022-10-20T19:34:37.998Z,7.13
2022-10-20T19:37:05.839Z,8.23
2022-10-20T19:39:35.674Z,8.20
2022-10-20T19:42:04.160Z,9.10
2022-10-20T19:44:31.379Z,8.63
2022-10-20T19:46:58.959Z,9.98
2022-10-20T19:49:26.727Z,10.18
2022-10-20T19:51:54.000Z,10.23
2022-10-20T19:54:20.816Z,11.60
2022-10-20T19:56:47.730Z,13.52
2022-10-20T19:59:14.697Z,12.95
2022-10-20T20:01:41.628Z,13.93
2022-10-20T20:04:08.497Z,13.38
2022-10-20T20:06:35.488Z,14.13
2022-10-20T20:09:05.442Z,13.70
2022-10-20T20:11:32.593Z,12.93
2022-10-20T20:14:02.951Z,13.32
2022-10-20T20:16:30.277Z,13.85
2022-10-20T20:18:57.605Z,15.23
2022-10-20T20:21:25.718Z,16.67
2022-10-20T20:24:00.055Z,16.05
2022-10-20T20:26:35.835Z,18.25
2022-10-20T20:29:04.003Z,15.35
2022-10-20T20:31:31.121Z,15.63
2022-10-20T20:33:58.336Z,15.48
2022-10-20T20:36:27.396Z,14.55
2022-10-20T20:38:59.103Z,14.63
2022-10-20T20:41:27.892Z,14.20
2022-10-20T20:43:54.744Z,14.48
2022-10-20T20:46:23.518Z,14.43
2022-10-20T20:48:51.229Z,12.80
2022-10-20T20:51:18.092Z,13.52
2022-10-20T20:53:44.952Z,13.00
2022-10-20T20:56:14.015Z,12.80
2022-10-20T20:58:42.147Z,12.98
2022-10-20T21:01:15.747Z,13.20
2022-10-20T21:03:43.436Z,15.07
2022-10-20T21:06:12.709Z,14.30
2022-10-20T21:08:42.760Z,13.70
2022-10-20T21:11:12.348Z,14.55
2022-10-20T21:13:40.839Z,15.45
2022-10-20T21:16:19.623Z,17.23
2022-10-20T21:18:49.166Z,16.85
2022-10-20T21:21:24.426Z,16.25
2022-10-20T21:23:51.810Z,16.95
2022-10-20T21:26:20.623Z,15.45
2022-10-20T21:28:48.385Z,14.90
2022-10-20T21:31:18.578Z,14.98
2022-10-20T21:33:49.170Z,14.00
2022-10-20T21:36:17.541Z,13.95
2022-10-20T21:38:44.696Z,14.32
2022-10-20T21:41:23.232Z,13.23
2022-10-20T21:43:52.761Z,14.40
2022-10-20T21:46:31.981Z,13.88
2022-10-20T21:49:20.361Z,13.02
2022-10-20T21:51:50.809Z,13.50
2022-10-20T21:56:52.714Z,15.32
2022-10-20T21:59:28.002Z,14.45
2022-10-20T22:02:00.621Z,14.35
2022-10-20T22:04:28.981Z,14.13
2022-10-20T22:06:56.432Z,13.70
2022-10-20T22:09:23.769Z,15.02
2022-10-20T22:11:55.012Z,12.32
2022-10-20T22:14:22.142Z,11.93
2022-10-20T22:16:49.045Z,11.75
2022-10-20T22:19:22.282Z,9.57
2022-10-20T22:21:51.336Z,9.82
2022-10-20T22:24:19.102Z,8.73
2022-10-20T22:26:46.096Z,8.10
2022-10-20T22:29:13.438Z,8.02
2022-10-20T22:31:41.435Z,7.80
2022-10-20T22:34:09.545Z,6.85
2022-10-20T22:36:37.176Z,6.78
2022-10-20T22:39:04.497Z,6.63
2022-10-20T22:41:31.422Z,6.07
2022-10-20T22:43:58.475Z,6.20
2022-10-20T22:46:25.890Z,6.00
2022-10-20T22:48:52.782Z,5.50
2022-10-20T22:51:19.668Z,5.20
2022-10-20T22:53:46.461Z,5.57
2022-10-20T22:56:16.066Z,5.75
2022-10-20T22:58:43.052Z,5.97
2022-10-20T23:01:12.771Z,5.32
2022-10-20T23:03:40.299Z,4.82
2022-10-20T23:06:09.753Z,6.47
2022-10-20T23:08:48.530Z,5.60
2022-10-20T23:11:16.033Z,5.40
2022-10-20T23:13:43.287Z,4.85
2022-10-20T23:16:10.717Z,5.28
2022-10-20T23:18:37.793Z,4.97
2022-10-20T23:21:05.222Z,4.47
2022-10-20T23:23:35.378Z,4.95
2022-10-20T23:26:04.648Z,5.18
2022-10-20T23:28:32.257Z,5.00
2022-10-20T23:31:31.555Z,5.05
2022-10-20T23:33:58.529Z,4.85
2022-10-20T23:36:25.294Z,4.55
2022-10-20T23:38:52.359Z,5.18
2022-10-20T23:41:19.476Z,5.15
2022-10-20T23:43:46.298Z,5.93
2022-10-20T23:46:13.337Z,6.10
2022-10-20T23:48:40.683Z,5.78
2022-10-20T23:51:08.140Z,6.57
2022-10-20T23:53:35.941Z,6.47
2022-10-20T23:56:02.796Z,7.60
2022-10-20T23:58:29.773Z,6.43
